sensor_id;sensor_type;location;lat;lon;timestamp;temperature;humidity
30467;DHT22;17258;52.560;13.046;2022-07-10T00:09:46;19.20;50.60
30467;DHT22;17258;52.560;13.046;2022-07-10T00:19:47;19.20;50.90
30467;DHT22;17258;52.560;13.046;2022-07-10T00:29:48;19.10;50.80
30467;DHT22;17258;52.560;13.046;2022-07-10T00:39:49;19.20;50.90
30467;DHT22;17258;52.560;13.046;2022-07-10T00:49:49;19.20;50.90
30467;DHT22;17258;52.560;13.046;2022-07-10T00:59:50;19.20;51.00
30467;DHT22;17258;52.560;13.046;2022-07-10T01:09:52;19.20;51.00
30467;DHT22;17258;52.560;13.046;2022-07-10T01:19:53;19.20;51.10
30467;DHT22;17258;52.560;13.046;2022-07-10T01:29:54;19.20;51.20
30467;DHT22;17258;52.560;13.046;2022-07-10T01:39:55;19.20;51.30
30467;DHT22;17258;52.560;13.046;2022-07-10T01:49:56;19.10;51.30
30467;DHT22;17258;52.560;13.046;2022-07-10T01:59:56;19.10;51.40
30467;DHT22;17258;52.560;13.046;2022-07-10T02:09:57;19.10;51.50
30467;DHT22;17258;52.560;13.046;2022-07-10T02:19:58;19.00;51.50
30467;DHT22;17258;52.560;13.046;2022-07-10T02:29:59;18.90;51.60
30467;DHT22;17258;52.560;13.046;2022-07-10T02:39:59;18.90;51.50
30467;DHT22;17258;52.560;13.046;2022-07-10T02:50:00;18.90;51.70
30467;DHT22;17258;52.560;13.046;2022-07-10T03:00:01;18.80;51.70
30467;DHT22;17258;52.560;13.046;2022-07-10T03:10:02;18.70;51.90
30467;DHT22;17258;52.560;13.046;2022-07-10T03:20:03;18.70;52.00
30467;DHT22;17258;52.560;13.046;2022-07-10T03:30:04;18.60;52.30
30467;DHT22;17258;52.560;13.046;2022-07-10T03:40:06;18.60;52.20
30467;DHT22;17258;52.560;13.046;2022-07-10T03:50:07;18.50;52.30
30467;DHT22;17258;52.560;13.046;2022-07-10T04:00:10;18.50;52.40
30467;DHT22;17258;52.560;13.046;2022-07-10T04:10:12;18.40;52.70
30467;DHT22;17258;52.560;13.046;2022-07-10T04:20:12;18.40;52.80
30467;DHT22;17258;52.560;13.046;2022-07-10T04:30:13;18.40;53.00
30467;DHT22;17258;52.560;13.046;2022-07-10T04:40:14;18.40;53.20
30467;DHT22;17258;52.560;13.046;2022-07-10T04:50:15;18.40;53.30
30467;DHT22;17258;52.560;13.046;2022-07-10T05:00:16;18.50;53.40
30467;DHT22;17258;52.560;13.046;2022-07-10T05:10:17;18.60;53.40
30467;DHT22;17258;52.560;13.046;2022-07-10T05:20:17;18.60;53.50
30467;DHT22;17258;52.560;13.046;2022-07-10T05:30:18;18.70;53.70
30467;DHT22;17258;52.560;13.046;2022-07-10T05:40:19;18.80;53.80
30467;DHT22;17258;52.560;13.046;2022-07-10T05:50:19;18.90;53.90
30467;DHT22;17258;52.560;13.046;2022-07-10T06:00:20;18.90;53.90
30467;DHT22;17258;52.560;13.046;2022-07-10T06:10:21;19.00;53.90
30467;DHT22;17258;52.560;13.046;2022-07-10T06:20:21;19.10;53.90
30467;DHT22;17258;52.560;13.046;2022-07-10T06:30:22;19.30;53.90
30467;DHT22;17258;52.560;13.046;2022-07-10T06:40:23;19.40;53.80
30467;DHT22;17258;52.560;13.046;2022-07-10T06:50:25;19.60;53.70
30467;DHT22;17258;52.560;13.046;2022-07-10T07:00:27;19.80;53.30
30467;DHT22;17258;52.560;13.046;2022-07-10T07:10:28;19.90;53.30
30467;DHT22;17258;52.560;13.046;2022-07-10T07:20:29;20.00;53.50
30467;DHT22;17258;52.560;13.046;2022-07-10T07:30:48;20.30;53.10
30467;DHT22;17258;52.560;13.046;2022-07-10T07:40:49;20.60;52.70
30467;DHT22;17258;52.560;13.046;2022-07-10T07:50:50;20.80;52.00
30467;DHT22;17258;52.560;13.046;2022-07-10T08:00:51;20.90;51.70
30467;DHT22;17258;52.560;13.046;2022-07-10T08:10:51;20.90;51.80
30467;DHT22;17258;52.560;13.046;2022-07-10T08:20:52;21.00;51.90
30467;DHT22;17258;52.560;13.046;2022-07-10T08:30:52;21.00;51.00
30467;DHT22;17258;52.560;13.046;2022-07-10T08:40:54;21.00;50.90
30467;DHT22;17258;52.560;13.046;2022-07-10T08:51:00;21.10;51.00
30467;DHT22;17258;52.560;13.046;2022-07-10T09:01:04;21.20;51.00
30467;DHT22;17258;52.560;13.046;2022-07-10T09:11:18;21.30;51.00
30467;DHT22;17258;52.560;13.046;2022-07-10T09:21:19;21.60;50.20
30467;DHT22;17258;52.560;13.046;2022-07-10T09:31:20;21.70;50.10
30467;DHT22;17258;52.560;13.046;2022-07-10T09:51:23;21.90;50.20
30467;DHT22;17258;52.560;13.046;2022-07-10T10:01:24;22.20;49.70
30467;DHT22;17258;52.560;13.046;2022-07-10T10:11:27;22.50;49.60
30467;DHT22;17258;52.560;13.046;2022-07-10T10:21:28;22.60;49.10
30467;DHT22;17258;52.560;13.046;2022-07-10T10:31:30;22.90;49.20
30467;DHT22;17258;52.560;13.046;2022-07-10T10:41:41;23.00;48.50
30467;DHT22;17258;52.560;13.046;2022-07-10T10:52:00;23.20;48.50
30467;DHT22;17258;52.560;13.046;2022-07-10T11:02:24;23.40;47.50
30467;DHT22;17258;52.560;13.046;2022-07-10T11:33:44;23.60;47.70
30467;DHT22;17258;52.560;13.046;2022-07-10T11:43:58;23.80;47.90
30467;DHT22;17258;52.560;13.046;2022-07-10T11:54:01;24.00;47.40
30467;DHT22;17258;52.560;13.046;2022-07-10T12:04:07;24.10;47.40
30467;DHT22;17258;52.560;13.046;2022-07-10T12:14:11;24.20;47.10
30467;DHT22;17258;52.560;13.046;2022-07-10T12:24:19;24.40;47.00
30467;DHT22;17258;52.560;13.046;2022-07-10T12:34:40;24.50;46.10
30467;DHT22;17258;52.560;13.046;2022-07-10T12:44:46;24.40;45.60
30467;DHT22;17258;52.560;13.046;2022-07-10T12:54:47;24.30;46.50
30467;DHT22;17258;52.560;13.046;2022-07-10T13:04:55;24.40;46.50
30467;DHT22;17258;52.560;13.046;2022-07-10T13:14:57;24.60;45.70
30467;DHT22;17258;52.560;13.046;2022-07-10T13:24:57;24.80;46.10
30467;DHT22;17258;52.560;13.046;2022-07-10T13:34:58;25.00;45.90
30467;DHT22;17258;52.560;13.046;2022-07-10T13:44:59;25.20;46.20
30467;DHT22;17258;52.560;13.046;2022-07-10T13:54:59;25.40;45.70
30467;DHT22;17258;52.560;13.046;2022-07-10T14:05:01;25.70;45.70
30467;DHT22;17258;52.560;13.046;2022-07-10T14:15:02;26.10;45.70
30467;DHT22;17258;52.560;13.046;2022-07-10T14:25:04;26.50;45.50
30467;DHT22;17258;52.560;13.046;2022-07-10T14:35:06;26.90;44.50
30467;DHT22;17258;52.560;13.046;2022-07-10T14:45:07;27.10;43.90
30467;DHT22;17258;52.560;13.046;2022-07-10T14:55:09;27.10;43.30
30467;DHT22;17258;52.560;13.046;2022-07-10T15:05:09;26.90;43.20
30467;DHT22;17258;52.560;13.046;2022-07-10T15:15:10;26.70;43.20
30467;DHT22;17258;52.560;13.046;2022-07-10T15:25:11;26.50;42.80
30467;DHT22;17258;52.560;13.046;2022-07-10T15:35:12;26.40;43.20
30467;DHT22;17258;52.560;13.046;2022-07-10T15:45:13;26.30;42.90
30467;DHT22;17258;52.560;13.046;2022-07-10T15:55:14;26.20;43.30
30467;DHT22;17258;52.560;13.046;2022-07-10T16:05:14;26.20;42.70
30467;DHT22;17258;52.560;13.046;2022-07-10T16:15:15;26.00;42.40
30467;DHT22;17258;52.560;13.046;2022-07-10T16:25:15;25.90;42.30
30467;DHT22;17258;52.560;13.046;2022-07-10T16:35:35;25.70;42.50
30467;DHT22;17258;52.560;13.046;2022-07-10T16:45:36;25.70;42.60
30467;DHT22;17258;52.560;13.046;2022-07-10T16:55:37;25.80;42.40
30467;DHT22;17258;52.560;13.046;2022-07-10T17:05:37;25.80;41.60
30467;DHT22;17258;52.560;13.046;2022-07-10T17:15:39;25.60;41.40
30467;DHT22;17258;52.560;13.046;2022-07-10T17:25:42;25.40;41.80
30467;DHT22;17258;52.560;13.046;2022-07-10T17:35:44;25.10;41.60
30467;DHT22;17258;52.560;13.046;2022-07-10T17:45:45;25.00;41.90
30467;DHT22;17258;52.560;13.046;2022-07-10T17:55:45;24.80;41.90
30467;DHT22;17258;52.560;13.046;2022-07-10T18:05:47;24.70;41.90
30467;DHT22;17258;52.560;13.046;2022-07-10T18:15:48;24.40;41.60
30467;DHT22;17258;52.560;13.046;2022-07-10T18:25:49;24.20;41.80
30467;DHT22;17258;52.560;13.046;2022-07-10T18:35:51;24.00;42.00
30467;DHT22;17258;52.560;13.046;2022-07-10T18:45:52;23.90;42.10
30467;DHT22;17258;52.560;13.046;2022-07-10T18:55:53;23.80;42.30
30467;DHT22;17258;52.560;13.046;2022-07-10T19:05:53;23.60;42.50
30467;DHT22;17258;52.560;13.046;2022-07-10T19:15:54;23.50;42.60
30467;DHT22;17258;52.560;13.046;2022-07-10T19:25:55;23.40;42.60
30467;DHT22;17258;52.560;13.046;2022-07-10T19:35:55;23.30;42.60
30467;DHT22;17258;52.560;13.046;2022-07-10T19:45:57;23.10;42.60
30467;DHT22;17258;52.560;13.046;2022-07-10T19:55:58;22.90;42.80
30467;DHT22;17258;52.560;13.046;2022-07-10T20:05:58;22.70;43.00
30467;DHT22;17258;52.560;13.046;2022-07-10T20:16:00;22.50;43.20
30467;DHT22;17258;52.560;13.046;2022-07-10T20:26:00;22.30;43.40
30467;DHT22;17258;52.560;13.046;2022-07-10T20:36:02;22.00;43.60
30467;DHT22;17258;52.560;13.046;2022-07-10T20:46:21;21.80;43.80
30467;DHT22;17258;52.560;13.046;2022-07-10T20:56:22;21.50;43.90
30467;DHT22;17258;52.560;13.046;2022-07-10T21:06:23;21.30;44.00
30467;DHT22;17258;52.560;13.046;2022-07-10T21:16:24;21.00;44.20
30467;DHT22;17258;52.560;13.046;2022-07-10T21:26:25;20.90;44.50
30467;DHT22;17258;52.560;13.046;2022-07-10T21:36:25;20.70;44.50
30467;DHT22;17258;52.560;13.046;2022-07-10T21:46:26;20.50;44.60
30467;DHT22;17258;52.560;13.046;2022-07-10T21:56:27;20.40;44.80
30467;DHT22;17258;52.560;13.046;2022-07-10T22:06:28;20.20;45.00
30467;DHT22;17258;52.560;13.046;2022-07-10T22:16:28;20.10;45.20
30467;DHT22;17258;52.560;13.046;2022-07-10T22:26:29;19.90;45.50
30467;DHT22;17258;52.560;13.046;2022-07-10T22:36:29;19.80;45.90
30467;DHT22;17258;52.560;13.046;2022-07-10T22:46:30;19.80;46.20
30467;DHT22;17258;52.560;13.046;2022-07-10T22:56:31;19.80;46.40
30467;DHT22;17258;52.560;13.046;2022-07-10T23:06:32;19.80;46.40
30467;DHT22;17258;52.560;13.046;2022-07-10T23:16:32;19.90;46.50
30467;DHT22;17258;52.560;13.046;2022-07-10T23:26:33;19.80;46.40
30467;DHT22;17258;52.560;13.046;2022-07-10T23:36:34;19.80;46.50
30467;DHT22;17258;52.560;13.046;2022-07-10T23:46:34;19.70;46.50
30467;DHT22;17258;52.560;13.046;2022-07-10T23:57:05;19.60;46.50
